createdAt,value
2023-05-02T00:02:36.680Z,11.93
2023-05-02T00:05:42.485Z,11.89
2023-05-02T00:08:50.116Z,12.01
2023-05-02T00:11:56.080Z,12.00
2023-05-02T00:15:01.508Z,12.02
2023-05-02T00:18:07.403Z,12.02
2023-05-02T00:21:13.140Z,12.01
2023-05-02T00:24:19.399Z,11.95
2023-05-02T00:27:25.985Z,11.97
2023-05-02T00:30:31.654Z,12.02
2023-05-02T00:33:36.915Z,12.07
2023-05-02T00:36:42.240Z,12.07
2023-05-02T00:39:47.797Z,12.09
2023-05-02T00:42:53.231Z,12.19
2023-05-02T00:45:59.193Z,12.21
2023-05-02T00:49:04.883Z,12.20
2023-05-02T00:52:11.566Z,12.21
2023-05-02T00:55:17.947Z,12.20
2023-05-02T00:58:23.915Z,12.20
2023-05-02T01:01:44.440Z,12.22
2023-05-02T01:05:11.644Z,12.24
2023-05-02T01:08:30.354Z,12.26
2023-05-02T01:12:00.711Z,12.35
2023-05-02T01:15:16.044Z,12.31
2023-05-02T01:18:26.191Z,12.27
2023-05-02T01:21:33.069Z,12.29
2023-05-02T01:25:02.978Z,12.24
2023-05-02T01:28:35.154Z,12.31
2023-05-02T01:31:44.607Z,12.23
2023-05-02T01:34:53.881Z,12.28
2023-05-02T01:38:02.946Z,12.25
2023-05-02T01:41:10.361Z,12.25
2023-05-02T01:44:17.748Z,12.23
2023-05-02T01:47:25.073Z,12.27
2023-05-02T01:50:33.115Z,12.26
2023-05-02T01:53:40.551Z,12.30
2023-05-02T01:56:48.076Z,12.32
2023-05-02T01:59:59.887Z,12.30
2023-05-02T02:03:11.976Z,12.27
2023-05-02T02:06:19.593Z,12.22
2023-05-02T02:09:25.434Z,12.25
2023-05-02T02:12:42.335Z,12.24
2023-05-02T02:15:50.413Z,12.28
2023-05-02T02:18:59.562Z,12.22
2023-05-02T02:22:08.347Z,12.25
2023-05-02T02:25:17.452Z,12.19
2023-05-02T02:28:23.396Z,12.25
2023-05-02T02:31:36.259Z,12.15
2023-05-02T02:34:42.252Z,12.14
2023-05-02T02:37:52.771Z,12.18
2023-05-02T02:41:11.999Z,12.16
2023-05-02T02:44:45.976Z,12.17
2023-05-02T02:48:09.048Z,12.16
2023-05-02T02:51:26.209Z,12.18
2023-05-02T02:54:40.668Z,12.22
2023-05-02T02:57:56.011Z,12.18
2023-05-02T03:01:05.313Z,12.21
2023-05-02T03:04:13.918Z,12.21
2023-05-02T03:07:19.652Z,12.16
2023-05-02T03:10:25.749Z,12.13
2023-05-02T03:13:32.883Z,12.19
2023-05-02T03:16:40.573Z,12.10
2023-05-02T03:19:50.811Z,12.18
2023-05-02T03:22:56.359Z,12.18
2023-05-02T03:26:03.357Z,12.15
2023-05-02T03:29:11.118Z,12.12
2023-05-02T03:32:20.934Z,12.12
2023-05-02T03:35:26.966Z,12.13
2023-05-02T03:38:32.953Z,12.15
2023-05-02T03:41:44.182Z,12.13
2023-05-02T03:44:54.344Z,12.16
2023-05-02T03:48:00.041Z,12.20
2023-05-02T03:51:08.602Z,12.21
2023-05-02T03:54:19.758Z,12.20
2023-05-02T03:57:25.917Z,12.23
2023-05-02T04:00:32.087Z,12.24
2023-05-02T04:03:43.361Z,12.23
2023-05-02T04:06:51.780Z,12.15
2023-05-02T04:09:57.786Z,12.22
2023-05-02T04:13:04.978Z,12.24
2023-05-02T04:16:12.525Z,12.23
2023-05-02T04:19:19.444Z,12.26
2023-05-02T04:22:25.154Z,12.29
2023-05-02T04:25:36.044Z,12.22
2023-05-02T04:28:42.730Z,12.20
2023-05-02T04:31:51.184Z,12.12
2023-05-02T04:34:57.123Z,12.17
2023-05-02T04:38:02.951Z,12.19
2023-05-02T04:41:09.576Z,12.16
2023-05-02T04:44:22.769Z,12.17
2023-05-02T04:47:28.642Z,12.19
2023-05-02T04:50:33.950Z,12.19
2023-05-02T04:53:39.345Z,12.17
2023-05-02T04:56:44.761Z,12.17
2023-05-02T04:59:51.110Z,12.19
2023-05-02T05:02:59.244Z,12.24
2023-05-02T05:06:06.662Z,12.25
2023-05-02T05:09:12.645Z,12.29
2023-05-02T05:12:19.010Z,12.31
2023-05-02T05:15:26.275Z,12.34
2023-05-02T05:18:45.057Z,12.36
2023-05-02T05:21:52.851Z,12.43
2023-05-02T05:25:00.343Z,12.48
2023-05-02T05:28:09.476Z,12.47
2023-05-02T05:31:17.559Z,12.53
2023-05-02T05:34:27.491Z,12.51
2023-05-02T05:37:39.764Z,12.59
2023-05-02T05:40:51.525Z,12.62
2023-05-02T05:43:57.946Z,12.63
2023-05-02T05:47:05.384Z,12.69
2023-05-02T05:50:11.577Z,12.75
2023-05-02T05:53:18.806Z,12.88
2023-05-02T05:56:27.302Z,12.93
2023-05-02T05:59:39.376Z,12.95
2023-05-02T06:02:47.409Z,13.04
2023-05-02T06:06:02.037Z,13.09
2023-05-02T06:09:07.348Z,13.22
2023-05-02T06:12:13.108Z,13.25
2023-05-02T06:15:19.347Z,13.25
2023-05-02T06:18:25.156Z,13.34
2023-05-02T06:21:31.814Z,13.37
2023-05-02T06:24:38.060Z,13.39
2023-05-02T06:27:43.729Z,13.44
2023-05-02T06:31:01.693Z,13.49
2023-05-02T06:34:07.535Z,13.52
2023-05-02T06:37:13.559Z,13.51
2023-05-02T06:40:19.420Z,13.49
2023-05-02T06:43:25.324Z,13.52
2023-05-02T06:46:33.997Z,13.59
2023-05-02T06:49:39.647Z,13.55
2023-05-02T06:52:44.972Z,13.65
2023-05-02T06:55:50.569Z,13.55
2023-05-02T06:58:56.075Z,13.55
2023-05-02T07:02:03.033Z,13.62
2023-05-02T07:05:11.051Z,13.70
2023-05-02T07:08:16.377Z,13.71
2023-05-02T07:11:23.797Z,13.80
2023-05-02T08:52:58.342Z,14.66
2023-05-02T08:56:04.570Z,14.89
2023-05-02T08:59:10.166Z,14.97
2023-05-02T09:02:45.252Z,14.86
2023-05-02T09:06:20.979Z,14.88
2023-05-02T09:09:27.430Z,14.92
2023-05-02T09:12:33.000Z,14.99
2023-05-02T09:15:38.797Z,15.07
2023-05-02T09:18:45.996Z,14.93
2023-05-02T09:21:51.575Z,14.88
2023-05-02T09:24:57.873Z,14.83
2023-05-02T09:28:03.973Z,14.80
2023-05-02T09:31:16.863Z,14.98
2023-05-02T09:34:24.750Z,14.86
2023-05-02T09:37:36.627Z,14.91
2023-05-02T09:40:57.866Z,14.99
2023-05-02T09:44:02.949Z,14.89
2023-05-02T09:47:08.884Z,14.71
2023-05-02T09:50:37.597Z,14.96
2023-05-02T09:53:48.006Z,14.82
2023-05-02T09:56:57.417Z,14.91
2023-05-02T10:00:03.747Z,15.04
2023-05-02T10:03:19.547Z,15.10
2023-05-02T10:06:25.124Z,15.01
2023-05-02T10:09:34.478Z,15.08
2023-05-02T10:12:40.908Z,15.17
2023-05-02T10:15:49.815Z,15.18
2023-05-02T10:19:08.063Z,15.28
2023-05-02T10:22:14.313Z,15.20
2023-05-02T10:25:19.876Z,15.10
2023-05-02T10:28:26.944Z,15.09
2023-05-02T10:31:35.451Z,15.27
2023-05-02T10:34:42.128Z,15.31
2023-05-02T10:37:49.810Z,15.37
2023-05-02T10:41:01.675Z,15.43
2023-05-02T10:44:09.137Z,15.47
2023-05-02T10:47:22.827Z,15.54
2023-05-02T10:50:47.713Z,15.58
2023-05-02T10:53:53.284Z,15.57
2023-05-02T10:57:03.609Z,15.62
2023-05-02T11:00:22.195Z,15.62
2023-05-02T11:03:59.697Z,15.66
2023-05-02T11:07:05.113Z,15.70
2023-05-02T11:10:22.533Z,15.85
2023-05-02T11:13:49.990Z,15.90
2023-05-02T11:17:01.437Z,15.92
2023-05-02T11:20:07.901Z,16.06
2023-05-02T11:23:16.550Z,16.03
2023-05-02T11:26:23.362Z,16.05
2023-05-02T11:30:06.965Z,16.07
2023-05-02T11:33:16.292Z,16.11
2023-05-02T11:36:35.049Z,16.11
2023-05-02T11:39:41.107Z,16.09
2023-05-02T11:42:47.421Z,16.22
2023-05-02T11:45:54.410Z,16.18
2023-05-02T11:49:01.345Z,15.99
2023-05-02T11:52:06.708Z,16.01
2023-05-02T11:55:14.223Z,16.18
2023-05-02T11:58:22.115Z,16.15
2023-05-02T12:01:27.773Z,16.15
2023-05-02T12:04:43.686Z,16.21
2023-05-02T12:07:49.489Z,16.41
2023-05-02T12:10:56.555Z,16.45
2023-05-02T12:14:04.123Z,16.44
2023-05-02T12:17:09.543Z,16.48
2023-05-02T12:20:16.162Z,16.47
2023-05-02T12:23:23.765Z,16.48
2023-05-02T12:26:34.168Z,16.50
2023-05-02T12:29:44.463Z,16.49
2023-05-02T12:33:01.824Z,16.59
2023-05-02T12:36:08.498Z,16.51
2023-05-02T12:39:14.091Z,16.52
2023-05-02T12:42:21.390Z,16.54
2023-05-02T12:45:29.407Z,16.51
2023-05-02T12:48:34.874Z,16.62
2023-05-02T12:51:41.464Z,16.71
2023-05-02T12:54:47.249Z,16.75
2023-05-02T12:58:01.501Z,16.89
2023-05-02T13:01:08.374Z,17.06
2023-05-02T13:04:14.288Z,16.98
2023-05-02T13:07:19.693Z,16.91
2023-05-02T13:10:26.612Z,17.02
2023-05-02T13:13:32.877Z,16.87
2023-05-02T13:16:38.728Z,16.74
2023-05-02T13:19:50.478Z,16.70
2023-05-02T13:22:56.458Z,16.74
2023-05-02T13:26:01.688Z,16.79
2023-05-02T13:29:07.020Z,16.85
2023-05-02T13:32:12.700Z,16.72
2023-05-02T13:35:18.675Z,16.67
2023-05-02T13:38:23.930Z,16.61
2023-05-02T13:41:29.440Z,16.76
2023-05-02T13:44:34.600Z,16.65
2023-05-02T13:47:40.929Z,16.69
2023-05-02T13:50:46.867Z,16.81
2023-05-02T13:53:52.071Z,16.84
2023-05-02T13:56:57.469Z,16.76
2023-05-02T14:00:03.373Z,16.63
2023-05-02T14:03:11.497Z,16.65
2023-05-02T14:06:16.900Z,16.68
2023-05-02T14:09:22.461Z,16.54
2023-05-02T14:12:28.599Z,16.67
2023-05-02T14:15:33.982Z,16.64
2023-05-02T14:18:39.370Z,16.64
2023-05-02T14:21:45.261Z,16.64
2023-05-02T14:24:51.434Z,16.59
2023-05-02T14:27:56.785Z,16.69
2023-05-02T14:31:01.981Z,16.69
2023-05-02T14:34:08.964Z,16.73
2023-05-02T14:37:14.938Z,16.70
2023-05-02T14:40:20.375Z,16.55
2023-05-02T14:43:27.238Z,16.60
2023-05-02T14:46:32.965Z,16.55
2023-05-02T14:49:38.247Z,16.61
2023-05-02T14:52:46.778Z,16.53
2023-05-02T14:55:52.376Z,16.52
2023-05-02T14:58:57.711Z,16.52
2023-05-02T15:02:03.367Z,16.49
2023-05-02T15:05:12.584Z,16.43
2023-05-02T15:08:18.616Z,16.47
2023-05-02T15:11:23.813Z,16.38
2023-05-02T15:14:29.584Z,16.38
2023-05-02T15:17:34.731Z,16.35
2023-05-02T15:20:39.998Z,16.32
2023-05-02T15:23:45.654Z,16.31
2023-05-02T15:26:52.085Z,16.04
2023-05-02T15:29:57.438Z,16.13
2023-05-02T15:33:03.345Z,15.95
2023-05-02T15:36:08.888Z,15.98
2023-05-02T15:39:14.018Z,16.03
2023-05-02T15:42:19.705Z,16.03
2023-05-02T15:45:25.607Z,15.87
2023-05-02T15:48:33.615Z,15.88
2023-05-02T15:51:39.361Z,15.77
2023-05-02T15:54:45.357Z,15.79
2023-05-02T15:57:52.294Z,15.81
2023-05-02T16:00:57.780Z,15.64
2023-05-02T16:04:02.953Z,15.64
2023-05-02T16:07:08.052Z,15.64
2023-05-02T16:10:13.399Z,15.59
2023-05-02T16:13:19.339Z,15.58
2023-05-02T16:16:24.938Z,15.52
2023-05-02T16:19:30.978Z,15.49
2023-05-02T16:22:37.063Z,15.46
2023-05-02T16:25:42.446Z,15.40
2023-05-02T16:28:48.138Z,15.36
2023-05-02T16:31:53.498Z,15.32
2023-05-02T16:34:58.566Z,15.45
2023-05-02T16:38:04.341Z,15.43
2023-05-02T16:41:10.497Z,15.40
2023-05-02T16:44:16.112Z,15.45
2023-05-02T16:47:22.262Z,15.37
2023-05-02T16:50:28.156Z,15.38
2023-05-02T16:53:33.523Z,15.44
2023-05-02T16:56:40.842Z,15.33
2023-05-02T16:59:51.481Z,15.33
2023-05-02T17:02:57.345Z,15.44
2023-05-02T17:06:03.485Z,15.36
2023-05-02T17:09:10.141Z,15.30
2023-05-02T17:12:16.038Z,15.31
2023-05-02T17:15:22.681Z,15.30
2023-05-02T17:18:28.339Z,15.31
2023-05-02T17:21:34.028Z,15.21
2023-05-02T17:24:39.911Z,15.23
2023-05-02T17:27:45.359Z,15.25
2023-05-02T17:30:54.992Z,15.24
2023-05-02T17:34:00.845Z,15.20
2023-05-02T17:37:07.814Z,15.19
2023-05-02T17:40:13.957Z,15.13
2023-05-02T17:43:19.782Z,15.09
2023-05-02T17:46:26.252Z,14.94
2023-05-02T17:49:35.427Z,14.92
2023-05-02T17:52:41.668Z,14.83
2023-05-02T17:55:47.836Z,14.86
2023-05-02T17:58:54.088Z,14.78
2023-05-02T18:01:59.834Z,14.78
2023-05-02T18:05:07.095Z,14.77
2023-05-02T18:08:13.064Z,14.72
2023-05-02T18:11:21.283Z,14.63
2023-05-02T18:14:27.206Z,14.67
2023-05-02T18:17:33.258Z,14.58
2023-05-02T18:20:40.772Z,14.60
2023-05-02T18:23:47.009Z,14.55
2023-05-02T18:26:53.042Z,14.58
2023-05-02T18:29:59.141Z,14.56
2023-05-02T18:33:05.587Z,14.41
2023-05-02T18:36:11.785Z,14.48
2023-05-02T18:39:18.404Z,14.39
2023-05-02T18:42:24.365Z,14.40
2023-05-02T18:45:30.477Z,14.40
2023-05-02T18:48:36.744Z,14.18
2023-05-02T18:51:42.285Z,14.14
2023-05-02T18:54:47.953Z,14.04
2023-05-02T18:57:53.759Z,13.94
2023-05-02T19:00:59.867Z,13.85
2023-05-02T19:04:05.627Z,13.77
2023-05-02T19:07:11.535Z,13.85
2023-05-02T19:10:17.317Z,13.83
2023-05-02T19:13:23.169Z,13.67
2023-05-02T19:16:29.484Z,13.75
2023-05-02T19:19:35.376Z,13.65
2023-05-02T19:22:42.872Z,13.61
2023-05-02T19:25:48.590Z,13.65
2023-05-02T19:28:54.283Z,13.61
2023-05-02T19:32:00.807Z,13.55
2023-05-02T19:35:09.116Z,13.51
2023-05-02T19:38:14.981Z,13.58
2023-05-02T19:41:22.696Z,13.57
2023-05-02T19:44:28.622Z,13.64
2023-05-02T19:47:34.722Z,13.50
2023-05-02T19:50:40.813Z,13.60
2023-05-02T19:53:47.200Z,13.55
2023-05-02T19:56:53.052Z,13.56
2023-05-02T19:59:58.805Z,13.57
2023-05-02T20:03:05.299Z,13.57
2023-05-02T20:06:11.406Z,13.51
2023-05-02T20:09:17.585Z,13.57
2023-05-02T20:12:23.023Z,13.62
2023-05-02T20:15:29.194Z,13.64
2023-05-02T20:18:34.681Z,13.70
2023-05-02T20:21:43.416Z,13.67
2023-05-02T20:24:49.170Z,13.64
2023-05-02T20:27:54.921Z,13.67
2023-05-02T20:31:03.070Z,13.70
2023-05-02T20:34:09.133Z,13.76
2023-05-02T20:37:15.452Z,13.75
2023-05-02T20:40:22.842Z,13.76
2023-05-02T20:43:29.219Z,13.70
2023-05-02T20:46:35.063Z,13.75
2023-05-02T20:49:40.655Z,13.74
2023-05-02T20:52:46.246Z,13.70
2023-05-02T20:55:51.708Z,13.78
2023-05-02T20:58:57.266Z,13.76
2023-05-02T21:02:03.222Z,13.81
2023-05-02T21:05:09.176Z,13.76
2023-05-02T21:08:15.125Z,13.72
2023-05-02T21:11:22.185Z,13.75
2023-05-02T21:14:27.810Z,13.78
2023-05-02T21:17:33.559Z,13.64
2023-05-02T21:20:41.661Z,13.61
2023-05-02T21:23:47.194Z,13.59
2023-05-02T21:26:52.987Z,13.66
2023-05-02T21:29:58.242Z,13.66
2023-05-02T21:33:04.129Z,13.69
2023-05-02T21:36:10.341Z,13.64
2023-05-02T21:39:16.747Z,13.69
2023-05-02T21:42:22.928Z,13.58
2023-05-02T21:45:30.440Z,13.53
2023-05-02T21:48:36.249Z,13.53
2023-05-02T21:51:41.676Z,13.53
2023-05-02T21:54:50.243Z,13.49
2023-05-02T21:57:56.311Z,13.46
2023-05-02T22:01:02.188Z,13.53
2023-05-02T22:04:07.794Z,13.49
2023-05-02T22:07:13.381Z,13.56
2023-05-02T22:10:18.885Z,13.60
2023-05-02T22:13:25.867Z,13.46
2023-05-02T22:16:31.685Z,13.41
2023-05-02T22:19:37.872Z,13.39
2023-05-02T22:22:43.394Z,13.56
2023-05-02T22:25:49.146Z,13.49
2023-05-02T22:28:54.886Z,13.49
2023-05-02T22:32:00.297Z,13.59
2023-05-02T22:35:07.106Z,13.57
2023-05-02T22:38:17.037Z,13.53
2023-05-02T22:41:22.554Z,13.55
2023-05-02T22:44:27.975Z,13.58
2023-05-02T22:47:33.919Z,13.66
2023-05-02T22:50:39.097Z,13.57
2023-05-02T22:53:44.646Z,13.60
2023-05-02T22:56:50.595Z,13.64
2023-05-02T22:59:56.568Z,13.61
2023-05-02T23:03:02.774Z,13.58
2023-05-02T23:06:08.515Z,13.47
2023-05-02T23:09:15.017Z,13.47
2023-05-02T23:12:20.629Z,13.41
2023-05-02T23:15:26.277Z,13.39
2023-05-02T23:18:31.792Z,13.30
2023-05-02T23:21:37.482Z,13.37
2023-05-02T23:24:42.985Z,13.31
2023-05-02T23:27:49.168Z,13.27
2023-05-02T23:30:54.829Z,13.17
2023-05-02T23:34:01.176Z,13.19
2023-05-02T23:37:07.752Z,13.20
2023-05-02T23:40:13.770Z,13.26
2023-05-02T23:43:19.122Z,13.31
2023-05-02T23:46:25.090Z,13.11
2023-05-02T23:49:30.792Z,13.06
2023-05-02T23:52:36.629Z,13.18
2023-05-02T23:55:42.099Z,13.24
2023-05-02T23:58:47.975Z,13.17
